OMDB/DXB METAR and TAF weather

Enter ICAO airport designator
Station Type Date Time Source
OMDB METAR 2020/07/06 08:00 UTC NOAA

OMDB 060800Z 34008KT CAVOK 40/25 Q0994 NOSIG


Station Type Date Time Source
OMDB Decoded METAR 2020/07/06 08:00 UTC NOAA

Dubai International Airport, United Arab Emirates (OMDB) 25-15N 055-20E 5M
Jul 06, 2020 - 04:00 AM EDT / 2020.07.06 0800 UTC
Wind: from the NNW (340 degrees) at 9 MPH (8 KT):0
Visibility: greater than 7 mile(s):0
Temperature: 104 F (40 C)
Heat index: 121.1 F (49.5 C):1
Dew Point: 77 F (25 C)
Relative Humidity: 42%
Pressure (altimeter): 29.35 in. Hg (0994 hPa)
ob: OMDB 060800Z 34008KT CAVOK 40/25 Q0994 NOSIG
cycle: 8

Station Type Date Time Source
OMDB TAF 2020/07/06 06:03 UTC NOAA

TAF OMDB 060451Z 0606/0712 VRB02KT CAVOK
BECMG 0606/0608 30010KT
BECMG 0615/0617 12005KT
BECMG 0707/0709 32012KT

Example: see airport list